createdAt,value
2018-09-13T00:00:20.879Z,2.30
2018-09-13T00:02:49.601Z,2.03
2018-09-13T00:05:17.708Z,2.87
2018-09-13T00:07:46.137Z,2.73
2018-09-13T00:10:14.913Z,2.80
2018-09-13T00:12:43.829Z,2.60
2018-09-13T00:15:12.565Z,3.13
2018-09-13T00:17:41.193Z,2.90
2018-09-13T00:20:09.685Z,2.80
2018-09-13T00:22:38.568Z,3.05
2018-09-13T00:25:07.253Z,3.30
2018-09-13T00:27:36.143Z,3.00
2018-09-13T00:30:04.689Z,3.03
2018-09-13T00:32:33.121Z,2.80
2018-09-13T00:35:02.144Z,3.03
2018-09-13T00:37:30.973Z,2.87
2018-09-13T00:39:59.673Z,2.70
2018-09-13T00:42:28.101Z,3.03
2018-09-13T00:44:56.649Z,3.30
2018-09-13T00:47:25.081Z,2.70
2018-09-13T00:49:53.452Z,2.72
2018-09-13T00:52:22.087Z,3.00
2018-09-13T00:54:50.589Z,3.12
2018-09-13T00:57:19.223Z,3.20
2018-09-13T00:59:47.997Z,3.97
2018-09-13T01:02:16.758Z,3.37
2018-09-13T01:04:45.298Z,3.47
2018-09-13T01:07:13.889Z,3.40
2018-09-13T01:09:42.542Z,3.55
2018-09-13T01:12:10.982Z,3.43
2018-09-13T01:14:39.973Z,3.77
2018-09-13T01:17:09.253Z,3.60
2018-09-13T01:19:37.620Z,3.63
2018-09-13T01:22:06.008Z,4.37
2018-09-13T01:24:36.089Z,3.37
2018-09-13T01:27:05.033Z,3.07
2018-09-13T01:29:33.469Z,3.60
2018-09-13T01:32:01.901Z,4.03
2018-09-13T01:34:30.377Z,3.80
2018-09-13T01:36:58.931Z,3.20
2018-09-13T01:39:27.728Z,3.77
2018-09-13T01:41:56.141Z,3.37
2018-09-13T01:44:25.063Z,3.80
2018-09-13T01:46:53.778Z,3.80
2018-09-13T01:49:21.865Z,3.80
2018-09-13T01:51:50.484Z,3.40
2018-09-13T01:54:18.913Z,3.40
2018-09-13T01:56:47.342Z,3.12
2018-09-13T01:59:16.008Z,3.67
2018-09-13T02:01:44.427Z,3.87
2018-09-13T02:04:13.232Z,3.83
2018-09-13T02:06:41.809Z,4.50
2018-09-13T02:09:11.193Z,4.30
2018-09-13T02:11:40.388Z,4.05
2018-09-13T02:14:09.237Z,4.30
2018-09-13T02:16:38.109Z,6.50
2018-09-13T02:19:06.905Z,5.15
2018-09-13T02:21:36.336Z,6.20
2018-09-13T02:24:04.922Z,6.27
2018-09-13T02:26:33.037Z,6.23
2018-09-13T02:29:01.881Z,6.53
2018-09-13T02:31:30.299Z,5.20
2018-09-13T02:33:58.998Z,5.47
2018-09-13T02:36:27.942Z,5.50
2018-09-13T02:38:56.241Z,5.63
2018-09-13T02:41:24.685Z,6.40
2018-09-13T02:43:53.115Z,4.67
2018-09-13T02:46:22.021Z,5.13
2018-09-13T02:48:50.720Z,4.97
2018-09-13T02:51:19.154Z,3.47
2018-09-13T02:53:47.729Z,4.50
2018-09-13T02:56:16.157Z,4.63
2018-09-13T02:58:44.584Z,4.07
2018-09-13T03:01:12.705Z,4.30
2018-09-13T03:03:41.173Z,4.47
2018-09-13T03:06:09.889Z,4.72
2018-09-13T03:08:38.689Z,5.30
2018-09-13T03:11:07.373Z,4.37
2018-09-13T03:13:36.438Z,4.10
2018-09-13T03:16:04.735Z,5.40
2018-09-13T03:18:33.373Z,5.63
2018-09-13T03:21:02.109Z,6.60
2018-09-13T03:23:30.537Z,6.90
2018-09-13T03:25:59.203Z,6.10
2018-09-13T03:28:27.645Z,6.43
2018-09-13T03:30:56.085Z,6.77
2018-09-13T03:33:24.741Z,5.77
2018-09-13T03:35:53.485Z,5.50
2018-09-13T03:38:22.182Z,5.85
2018-09-13T03:40:50.272Z,7.27
2018-09-13T03:43:18.803Z,6.03
2018-09-13T03:45:47.544Z,6.00
2018-09-13T03:48:16.200Z,7.90
2018-09-13T03:50:45.089Z,8.60
2018-09-13T03:53:13.741Z,7.37
2018-09-13T03:55:42.489Z,6.47
2018-09-13T03:58:11.101Z,7.40
2018-09-13T04:00:39.545Z,5.73
2018-09-13T04:03:08.168Z,6.23
2018-09-13T04:05:36.772Z,5.90
2018-09-13T04:08:05.183Z,6.70
2018-09-13T04:10:34.117Z,6.83
2018-09-13T04:13:02.205Z,7.17
2018-09-13T04:15:30.641Z,7.80
2018-09-13T04:17:59.268Z,9.57
2018-09-13T04:20:27.881Z,8.67
2018-09-13T04:22:56.917Z,8.90
2018-09-13T04:25:25.357Z,10.40
2018-09-13T04:27:53.810Z,8.10
2018-09-13T04:30:22.449Z,8.90
2018-09-13T04:32:51.449Z,7.90
2018-09-13T04:35:19.873Z,8.73
2018-09-13T04:37:48.580Z,10.20
2018-09-13T04:40:18.253Z,8.57
2018-09-13T04:42:46.666Z,9.03
2018-09-13T04:45:15.290Z,9.20
2018-09-13T04:47:43.977Z,8.73
2018-09-13T04:50:12.424Z,9.10
2018-09-13T04:52:41.122Z,7.30
2018-09-13T04:55:09.561Z,8.90
2018-09-13T04:57:38.270Z,7.93
2018-09-13T05:00:06.378Z,9.80
2018-09-13T05:07:38.001Z,8.63
2018-09-13T05:10:06.626Z,8.77
2018-09-13T05:12:35.247Z,8.70
2018-09-13T05:15:03.922Z,9.00
2018-09-13T05:17:32.356Z,10.80
2018-09-13T05:20:00.869Z,10.20
2018-09-13T05:22:28.964Z,10.27
2018-09-13T05:24:57.405Z,11.50
2018-09-13T05:27:25.849Z,12.07
2018-09-13T05:29:53.957Z,10.90
2018-09-13T05:32:22.621Z,9.63
2018-09-13T05:34:51.065Z,11.30
2018-09-13T05:37:19.500Z,10.87
2018-09-13T05:39:47.941Z,12.07
2018-09-13T05:42:16.398Z,11.30
2018-09-13T05:44:44.916Z,11.47
2018-09-13T05:47:13.182Z,12.60
2018-09-13T05:49:41.641Z,9.70
2018-09-13T05:52:09.986Z,11.00
2018-09-13T05:54:38.420Z,11.43
2018-09-13T05:57:07.106Z,10.13
2018-09-13T05:59:35.589Z,13.00
2018-09-13T06:02:03.700Z,12.43
2018-09-13T06:04:32.160Z,11.97
2018-09-13T06:07:00.621Z,11.63
2018-09-13T06:09:29.082Z,12.93
2018-09-13T06:11:57.541Z,11.40
2018-09-13T06:14:25.681Z,10.50
2018-09-13T06:16:54.126Z,11.87
2018-09-13T06:19:22.562Z,11.60
2018-09-13T06:21:51.078Z,13.53
2018-09-13T06:24:19.521Z,11.53
2018-09-13T06:26:48.407Z,13.83
2018-09-13T06:29:16.841Z,13.33
2018-09-13T06:31:45.277Z,15.20
2018-09-13T06:34:13.369Z,14.73
2018-09-13T06:36:42.039Z,13.97
2018-09-13T06:39:11.320Z,15.70
2018-09-13T06:41:39.793Z,11.97
2018-09-13T06:44:09.536Z,15.37
2018-09-13T06:46:38.049Z,15.57
2018-09-13T06:49:06.765Z,16.43
2018-09-13T06:51:35.356Z,13.90
2018-09-13T06:54:03.726Z,15.17
2018-09-13T06:56:33.013Z,15.20
2018-09-13T06:59:01.501Z,16.80
2018-09-13T07:01:29.614Z,15.60
2018-09-13T07:03:58.049Z,16.13
2018-09-13T07:06:26.622Z,14.50
2018-09-13T07:08:55.092Z,12.50
2018-09-13T07:11:23.401Z,14.87
2018-09-13T07:13:51.505Z,14.13
2018-09-13T07:16:19.944Z,15.00
2018-09-13T07:18:48.393Z,15.40
2018-09-13T07:21:17.073Z,16.00
2018-09-13T07:23:45.351Z,12.80
2018-09-13T07:26:13.853Z,15.20
2018-09-13T07:28:42.317Z,13.77
2018-09-13T07:31:10.760Z,12.00
2018-09-13T07:33:39.313Z,11.83
2018-09-13T07:36:07.412Z,11.80
2018-09-13T07:38:35.853Z,10.37
2018-09-13T07:41:04.365Z,9.60
2018-09-13T07:43:32.809Z,10.47
2018-09-13T07:46:01.233Z,9.77
2018-09-13T07:48:29.895Z,10.47
2018-09-13T07:50:58.582Z,9.07
2018-09-13T07:53:27.017Z,6.97
2018-09-13T07:55:55.470Z,9.07
2018-09-13T07:58:24.050Z,8.37
2018-09-13T08:00:52.696Z,8.77
2018-09-13T08:03:21.353Z,8.97
2018-09-13T08:05:50.007Z,9.07
2018-09-13T08:08:18.466Z,9.07
2018-09-13T08:10:47.166Z,10.17
2018-09-13T08:13:15.614Z,9.13
2018-09-13T08:15:44.314Z,9.50
2018-09-13T08:18:12.916Z,9.20
2018-09-13T08:20:41.567Z,8.60
2018-09-13T08:23:09.828Z,8.33
2018-09-13T08:25:38.256Z,8.13
2018-09-13T08:28:06.557Z,8.10
2018-09-13T08:30:35.176Z,8.23
2018-09-13T08:33:03.841Z,7.47
2018-09-13T08:35:32.602Z,7.30
2018-09-13T08:38:01.189Z,7.20
2018-09-13T08:40:29.668Z,6.33
2018-09-13T08:42:58.119Z,6.70
2018-09-13T08:45:26.401Z,6.93
2018-09-13T08:47:54.821Z,6.17
2018-09-13T08:50:23.266Z,5.90
2018-09-13T08:52:51.560Z,6.90
2018-09-13T08:55:19.846Z,6.63
2018-09-13T08:57:47.949Z,6.00
2018-09-13T09:00:16.989Z,6.50
2018-09-13T09:02:45.097Z,7.17
2018-09-13T09:05:13.551Z,7.17
2018-09-13T09:07:41.685Z,7.40
2018-09-13T09:10:10.176Z,8.60
2018-09-13T09:12:38.272Z,8.60
2018-09-13T09:15:06.633Z,7.53
2018-09-13T09:17:35.097Z,9.70
2018-09-13T09:20:03.551Z,8.57
2018-09-13T09:22:32.045Z,6.70
2018-09-13T09:25:00.732Z,5.07
2018-09-13T09:27:29.165Z,4.30
2018-09-13T09:29:57.715Z,2.80
2018-09-13T09:32:26.737Z,2.30
2018-09-13T09:34:55.111Z,2.97
2018-09-13T09:37:23.745Z,1.97
2018-09-13T09:39:52.243Z,1.80
2018-09-13T09:42:20.822Z,1.93
2018-09-13T09:44:49.287Z,2.30
2018-09-13T09:47:17.913Z,1.47
2018-09-13T09:49:46.626Z,1.50
2018-09-13T09:52:14.903Z,2.00
2018-09-13T09:54:43.548Z,2.30
2018-09-13T09:57:12.206Z,1.73
2018-09-13T09:59:40.638Z,2.00
2018-09-13T10:02:14.510Z,2.50
2018-09-13T10:04:43.070Z,2.50
2018-09-13T10:07:13.324Z,1.90
2018-09-13T10:09:42.037Z,2.00
2018-09-13T10:12:11.525Z,2.20
2018-09-13T10:14:40.070Z,2.17
2018-09-13T10:17:13.761Z,2.53
2018-09-13T10:19:47.572Z,2.43
2018-09-13T10:22:21.857Z,2.83
2018-09-13T10:24:55.986Z,2.60
2018-09-13T10:27:29.843Z,2.30
2018-09-13T10:30:03.800Z,2.13
2018-09-13T10:32:37.497Z,2.43
2018-09-13T10:35:11.337Z,2.50
2018-09-13T10:37:44.990Z,2.67
2018-09-13T10:40:18.960Z,2.37
2018-09-13T10:42:52.805Z,2.73
2018-09-13T10:46:30.985Z,1.97
2018-09-13T10:49:04.713Z,2.67
2018-09-13T10:51:38.521Z,2.57
2018-09-13T10:54:11.609Z,2.23
2018-09-13T10:56:40.869Z,2.37
2018-09-13T10:59:09.245Z,1.70
2018-09-13T11:01:38.261Z,1.90
2018-09-13T11:04:06.805Z,2.17
2018-09-13T11:06:35.631Z,2.80
2018-09-13T11:09:04.921Z,2.60
2018-09-13T11:11:33.422Z,1.60
2018-09-13T11:14:07.243Z,2.23
2018-09-13T11:16:35.330Z,2.00
2018-09-13T11:19:04.018Z,1.70
2018-09-13T11:21:32.459Z,2.13
2018-09-13T11:24:00.995Z,2.30
2018-09-13T11:26:29.309Z,2.03
2018-09-13T11:28:57.725Z,2.67
2018-09-13T11:31:25.867Z,2.20
2018-09-13T11:33:54.725Z,2.27
2018-09-13T11:36:23.401Z,2.30
2018-09-13T11:38:51.509Z,2.03
2018-09-13T11:41:19.617Z,2.00
2018-09-13T11:43:48.464Z,2.00
2018-09-13T11:46:17.176Z,2.07
2018-09-13T11:48:45.273Z,2.20
2018-09-13T11:51:13.700Z,2.57
2018-09-13T11:53:42.175Z,2.33
2018-09-13T11:56:10.849Z,2.30
2018-09-13T11:58:39.281Z,2.13
2018-09-13T12:01:07.419Z,2.07
2018-09-13T12:03:36.013Z,2.50
2018-09-13T12:06:04.689Z,2.00
2018-09-13T12:08:33.173Z,2.43
2018-09-13T12:11:01.614Z,2.17
2018-09-13T12:13:30.037Z,2.30
2018-09-13T12:15:58.146Z,2.90
2018-09-13T12:18:26.643Z,3.10
2018-09-13T12:20:55.297Z,2.60
2018-09-13T12:23:23.733Z,3.07
2018-09-13T12:25:52.397Z,2.60
2018-09-13T12:28:21.073Z,2.50
2018-09-13T12:30:50.142Z,2.67
2018-09-13T12:33:18.631Z,2.30
2018-09-13T12:35:46.747Z,3.13
2018-09-13T12:38:15.929Z,3.20
2018-09-13T12:40:44.263Z,3.37
2018-09-13T12:43:13.210Z,2.57
2018-09-13T12:45:41.644Z,2.70
2018-09-13T12:48:10.077Z,2.57
2018-09-13T12:50:38.497Z,3.20
2018-09-13T12:53:06.620Z,3.20
2018-09-13T12:55:40.145Z,2.60
2018-09-13T12:58:08.493Z,3.00
2018-09-13T13:00:36.817Z,3.10
2018-09-13T13:03:05.547Z,3.07
2018-09-13T13:05:33.651Z,3.37
2018-09-13T13:08:02.110Z,2.67
2018-09-13T13:10:30.581Z,3.13
2018-09-13T13:12:59.241Z,3.23
2018-09-13T13:15:27.861Z,2.93
2018-09-13T13:17:56.213Z,3.97
2018-09-13T13:20:24.485Z,3.37
2018-09-13T13:22:53.436Z,3.37
2018-09-13T13:25:21.521Z,3.27
2018-09-13T13:27:50.553Z,3.47
2018-09-13T13:30:19.169Z,3.40
2018-09-13T13:32:47.621Z,3.57
2018-09-13T13:35:16.057Z,4.00
2018-09-13T13:37:44.492Z,3.90
2018-09-13T13:40:12.917Z,3.70
2018-09-13T13:42:41.610Z,4.60
2018-09-13T13:45:09.728Z,4.03
2018-09-13T13:47:38.324Z,4.30
2018-09-13T13:50:06.689Z,4.60
2018-09-13T13:52:35.114Z,3.90
2018-09-13T13:55:03.801Z,3.90
2018-09-13T13:57:32.282Z,4.50
2018-09-13T14:00:00.746Z,4.27
2018-09-13T14:02:29.363Z,4.37
2018-09-13T14:04:57.785Z,4.17
2018-09-13T14:07:26.445Z,4.57
2018-09-13T14:09:55.047Z,4.50
2018-09-13T14:12:23.877Z,5.10
2018-09-13T14:14:51.987Z,4.57
2018-09-13T14:17:20.402Z,5.20
2018-09-13T14:19:48.833Z,4.50
2018-09-13T14:22:17.593Z,4.33
2018-09-13T14:24:46.025Z,5.07
2018-09-13T14:27:14.129Z,4.93
2018-09-13T14:29:42.580Z,4.40
2018-09-13T14:32:11.280Z,3.97
2018-09-13T14:34:39.714Z,4.83
2018-09-13T14:37:08.152Z,4.50
2018-09-13T14:39:36.582Z,4.10
2018-09-13T14:42:04.997Z,4.40
2018-09-13T14:44:33.665Z,3.80
2018-09-13T14:47:02.009Z,4.23
2018-09-13T14:49:30.311Z,3.70
2018-09-13T14:51:58.641Z,4.70
2018-09-13T14:54:27.072Z,4.10
2018-09-13T14:56:55.704Z,4.60
2018-09-13T14:59:24.374Z,4.80
2018-09-13T15:01:52.799Z,4.97
2018-09-13T15:04:21.270Z,4.87
2018-09-13T15:06:50.010Z,4.87
2018-09-13T15:09:18.929Z,4.90
2018-09-13T15:11:47.040Z,4.30
2018-09-13T15:14:15.669Z,4.10
2018-09-13T15:16:44.106Z,4.10
2018-09-13T15:19:12.597Z,4.27
2018-09-13T15:21:41.033Z,3.90
2018-09-13T15:24:09.492Z,4.13
2018-09-13T15:26:38.093Z,4.40
2018-09-13T15:29:06.682Z,4.27
2018-09-13T15:31:35.111Z,4.60
2018-09-13T15:34:03.532Z,4.50
2018-09-13T15:36:32.114Z,4.67
2018-09-13T15:39:00.541Z,3.13
2018-09-13T15:41:29.221Z,3.30
2018-09-13T15:43:57.657Z,3.40
2018-09-13T15:46:26.426Z,4.10
2018-09-13T15:48:54.850Z,4.17
2018-09-13T15:51:23.525Z,4.10
2018-09-13T15:53:51.948Z,4.67
2018-09-13T15:56:20.389Z,4.07
2018-09-13T15:58:48.829Z,4.20
2018-09-13T16:01:17.508Z,4.87
2018-09-13T16:03:46.077Z,5.10
2018-09-13T16:06:14.774Z,4.30
2018-09-13T16:08:42.861Z,3.70
2018-09-13T16:11:11.340Z,4.33
2018-09-13T16:13:39.989Z,4.77
2018-09-13T16:16:08.577Z,4.10
2018-09-13T16:18:36.696Z,5.10
2018-09-13T16:21:04.823Z,4.63
2018-09-13T16:23:33.119Z,3.87
2018-09-13T16:26:01.824Z,5.20
2018-09-13T16:28:30.398Z,4.87
2018-09-13T16:30:58.845Z,3.40
2018-09-13T16:33:26.937Z,3.80
2018-09-13T16:35:55.793Z,5.27
2018-09-13T16:38:31.030Z,3.77
2018-09-13T16:41:05.906Z,3.40
2018-09-13T16:43:39.570Z,4.40
2018-09-13T16:46:14.233Z,3.43
2018-09-13T16:48:44.281Z,3.70
2018-09-13T16:51:13.289Z,4.93
2018-09-13T16:53:41.712Z,4.93
2018-09-13T16:56:09.822Z,5.20
2018-09-13T16:58:38.242Z,5.47
2018-09-13T17:01:06.586Z,5.00
2018-09-13T17:03:34.694Z,4.50
2018-09-13T17:06:03.124Z,6.00
2018-09-13T17:08:31.541Z,5.23
2018-09-13T17:11:00.221Z,7.23
2018-09-13T17:13:28.568Z,6.10
2018-09-13T17:15:57.269Z,4.37
2018-09-13T17:18:25.730Z,4.00
2018-09-13T17:20:54.165Z,3.57
2018-09-13T17:23:22.834Z,4.10
2018-09-13T17:25:50.933Z,4.20
2018-09-13T17:28:19.365Z,4.30
2018-09-13T17:30:47.457Z,4.50
2018-09-13T17:33:15.962Z,4.30
2018-09-13T17:35:44.401Z,4.60
2018-09-13T17:38:12.497Z,3.87
2018-09-13T17:40:41.057Z,4.17
2018-09-13T17:43:09.221Z,4.37
2018-09-13T17:45:37.649Z,3.70
2018-09-13T17:48:06.136Z,4.17
2018-09-13T17:50:34.775Z,4.97
2018-09-13T17:53:03.426Z,4.40
2018-09-13T17:55:33.141Z,3.90
2018-09-13T18:00:52.172Z,4.30
2018-09-13T18:03:20.346Z,5.30
2018-09-13T18:05:48.662Z,4.70
2018-09-13T18:08:16.825Z,4.10
2018-09-13T18:10:45.532Z,4.57
2018-09-13T18:13:13.715Z,4.67
2018-09-13T18:15:41.878Z,4.40
2018-09-13T18:18:10.416Z,4.50
2018-09-13T18:20:38.742Z,4.70
2018-09-13T18:23:07.200Z,4.80
2018-09-13T18:25:35.299Z,4.93
2018-09-13T18:28:04.080Z,5.10
2018-09-13T18:30:32.221Z,5.73
2018-09-13T18:33:00.533Z,5.37
2018-09-13T18:35:29.084Z,5.10
2018-09-13T18:37:57.553Z,6.23
2018-09-13T18:40:25.662Z,6.47
2018-09-13T18:42:53.815Z,5.93
2018-09-13T18:45:22.412Z,7.20
2018-09-13T18:47:50.601Z,6.80
2018-09-13T18:50:18.790Z,5.67
2018-09-13T18:52:46.996Z,6.90
2018-09-13T18:55:15.612Z,5.83
2018-09-13T18:57:44.093Z,6.20
2018-09-13T19:00:12.628Z,6.70
2018-09-13T19:02:40.952Z,6.37
2018-09-13T19:05:09.304Z,6.90
2018-09-13T19:07:37.428Z,7.03
2018-09-13T19:10:05.973Z,7.10
2018-09-13T19:12:34.098Z,7.00
2018-09-13T19:15:02.259Z,8.00
2018-09-13T19:17:30.908Z,7.70
2018-09-13T19:19:59.376Z,8.00
2018-09-13T19:22:27.481Z,7.77
2018-09-13T19:24:55.616Z,7.50
2018-09-13T19:27:23.924Z,7.37
2018-09-13T19:29:52.380Z,7.00
2018-09-13T19:32:20.832Z,7.33
2018-09-13T19:34:49.175Z,7.30
2018-09-13T19:37:17.467Z,7.27
2018-09-13T19:39:45.598Z,8.33
2018-09-13T19:42:15.408Z,7.40
2018-09-13T19:44:43.540Z,8.00
2018-09-13T19:47:11.688Z,8.20
2018-09-13T19:49:39.829Z,8.40
2018-09-13T19:52:08.543Z,8.60
2018-09-13T19:54:37.312Z,8.93
2018-09-13T19:57:05.785Z,9.70
2018-09-13T19:59:34.284Z,8.70
2018-09-13T20:02:02.724Z,9.07
2018-09-13T20:04:30.891Z,9.03
2018-09-13T20:06:59.160Z,8.63
2018-09-13T20:09:27.424Z,9.70
2018-09-13T20:11:56.131Z,10.37
2018-09-13T20:14:24.436Z,9.67
2018-09-13T20:16:52.556Z,10.40
2018-09-13T20:19:20.858Z,11.00
2018-09-13T20:21:49.320Z,10.90
2018-09-13T20:24:17.451Z,10.80
2018-09-13T20:26:45.609Z,10.77
2018-09-13T20:29:13.744Z,10.33
2018-09-13T20:31:42.188Z,9.43
2018-09-13T20:34:10.328Z,9.60
2018-09-13T20:36:38.776Z,11.50
2018-09-13T20:39:09.458Z,9.83
2018-09-13T20:41:37.955Z,9.80
2018-09-13T20:44:06.383Z,9.67
2018-09-13T20:46:34.845Z,11.53
2018-09-13T20:49:03.000Z,10.10
2018-09-13T20:51:31.124Z,10.63
2018-09-13T20:53:59.289Z,11.50
2018-09-13T20:56:27.417Z,11.10
2018-09-13T20:58:55.872Z,11.67
2018-09-13T21:01:24.211Z,12.87
2018-09-13T21:03:52.512Z,11.57
2018-09-13T21:06:21.621Z,11.83
2018-09-13T21:08:49.741Z,11.93
2018-09-13T21:11:18.123Z,12.53
2018-09-13T21:13:46.252Z,12.80
2018-09-13T21:16:15.900Z,12.00
2018-09-13T21:18:44.379Z,13.17
2018-09-13T21:21:12.838Z,12.60
2018-09-13T21:23:41.508Z,13.30
2018-09-13T21:26:10.176Z,13.13
2018-09-13T21:28:38.412Z,12.10
2018-09-13T21:31:06.544Z,14.27
2018-09-13T21:33:35.066Z,13.37
2018-09-13T21:36:03.389Z,13.47
2018-09-13T21:38:31.740Z,12.40
2018-09-13T21:41:00.229Z,12.60
2018-09-13T21:43:28.344Z,11.13
2018-09-13T21:45:56.473Z,12.60
2018-09-13T21:48:24.787Z,10.87
2018-09-13T21:50:53.251Z,11.03
2018-09-13T21:53:21.557Z,11.60
2018-09-13T21:55:50.213Z,12.40
2018-09-13T21:58:18.850Z,12.30
2018-09-13T22:00:47.181Z,11.77
2018-09-13T22:03:15.312Z,10.23
2018-09-13T22:05:43.780Z,12.10
2018-09-13T22:08:11.975Z,12.20
2018-09-13T22:10:40.289Z,12.57
2018-09-13T22:13:08.400Z,12.97
2018-09-13T22:15:36.527Z,12.33
2018-09-13T22:18:04.978Z,12.27
2018-09-13T22:20:34.117Z,11.90
2018-09-13T22:23:02.532Z,12.87
2018-09-13T22:25:31.024Z,13.77
2018-09-13T22:27:59.144Z,15.10
2018-09-13T22:30:27.588Z,13.40
2018-09-13T22:32:56.052Z,13.10
2018-09-13T22:35:24.496Z,15.97
2018-09-13T22:37:52.958Z,15.33
2018-09-13T22:40:21.416Z,14.73
2018-09-13T22:42:49.728Z,15.83
2018-09-13T22:45:17.839Z,15.23
2018-09-13T22:47:46.025Z,15.87
2018-09-13T22:50:14.515Z,15.30
2018-09-13T22:52:42.683Z,14.30
2018-09-13T22:55:11.360Z,15.80
2018-09-13T22:57:39.820Z,15.50
2018-09-13T23:00:08.245Z,15.27
2018-09-13T23:02:42.104Z,15.80
2018-09-13T23:05:10.616Z,14.17
2018-09-13T23:07:38.876Z,14.80
2018-09-13T23:10:07.043Z,15.00
2018-09-13T23:12:35.172Z,15.10
2018-09-13T23:15:03.832Z,13.07
2018-09-13T23:17:32.534Z,15.43
2018-09-13T23:20:00.796Z,14.27
2018-09-13T23:22:29.128Z,13.03
2018-09-13T23:24:57.572Z,13.93
2018-09-13T23:27:25.704Z,14.20
2018-09-13T23:29:53.815Z,13.70
2018-09-13T23:32:21.947Z,12.57
2018-09-13T23:34:50.401Z,13.17
2018-09-13T23:37:19.141Z,14.83
2018-09-13T23:39:47.675Z,14.40
2018-09-13T23:42:15.824Z,15.23
2018-09-13T23:44:43.943Z,13.17
2018-09-13T23:47:12.265Z,15.20
2018-09-13T23:49:40.385Z,14.60
2018-09-13T23:52:08.544Z,14.10
2018-09-13T23:54:36.856Z,15.57
2018-09-13T23:57:04.984Z,14.50
2018-09-13T23:59:33.092Z,16.17
